sensor_id;sensor_type;location;lat;lon;timestamp;P1;durP1;ratioP1;P2;durP2;ratioP2
12681;SDS011;6405;59.208;18.216;2022-10-18T00:02:08;1.43;;;0.57;;
12681;SDS011;6405;59.208;18.216;2022-10-18T00:04:34;1.23;;;0.60;;
12681;SDS011;6405;59.208;18.216;2022-10-18T00:07:00;6.47;;;0.80;;
12681;SDS011;6405;59.208;18.216;2022-10-18T00:09:26;0.57;;;0.43;;
12681;SDS011;6405;59.208;18.216;2022-10-18T00:11:54;4.40;;;0.67;;
12681;SDS011;6405;59.208;18.216;2022-10-18T00:14:22;1.23;;;0.60;;
12681;SDS011;6405;59.208;18.216;2022-10-18T00:16:48;1.60;;;0.60;;
12681;SDS011;6405;59.208;18.216;2022-10-18T00:19:14;2.17;;;0.60;;
12681;SDS011;6405;59.208;18.216;2022-10-18T00:21:40;2.17;;;0.80;;
12681;SDS011;6405;59.208;18.216;2022-10-18T00:24:07;1.63;;;0.60;;
12681;SDS011;6405;59.208;18.216;2022-10-18T00:26:32;2.03;;;0.50;;
12681;SDS011;6405;59.208;18.216;2022-10-18T00:29:00;3.67;;;0.70;;
12681;SDS011;6405;59.208;18.216;2022-10-18T00:31:34;2.83;;;0.70;;
12681;SDS011;6405;59.208;18.216;2022-10-18T00:34:03;3.40;;;0.60;;
12681;SDS011;6405;59.208;18.216;2022-10-18T00:36:32;1.73;;;0.50;;
12681;SDS011;6405;59.208;18.216;2022-10-18T00:39:00;3.30;;;0.50;;
12681;SDS011;6405;59.208;18.216;2022-10-18T00:41:29;2.43;;;0.60;;
12681;SDS011;6405;59.208;18.216;2022-10-18T00:46:29;2.37;;;0.80;;
12681;SDS011;6405;59.208;18.216;2022-10-18T00:49:00;0.77;;;0.43;;
12681;SDS011;6405;59.208;18.216;2022-10-18T00:51:31;1.30;;;0.47;;
12681;SDS011;6405;59.208;18.216;2022-10-18T00:54:02;1.30;;;0.53;;
12681;SDS011;6405;59.208;18.216;2022-10-18T00:56:29;2.13;;;0.77;;
12681;SDS011;6405;59.208;18.216;2022-10-18T00:58:58;2.63;;;0.57;;
12681;SDS011;6405;59.208;18.216;2022-10-18T01:01:25;3.07;;;0.67;;
12681;SDS011;6405;59.208;18.216;2022-10-18T01:03:51;3.23;;;0.60;;
12681;SDS011;6405;59.208;18.216;2022-10-18T01:06:18;0.53;;;0.40;;
12681;SDS011;6405;59.208;18.216;2022-10-18T01:08:49;2.33;;;0.40;;
12681;SDS011;6405;59.208;18.216;2022-10-18T01:11:44;2.60;;;0.70;;
12681;SDS011;6405;59.208;18.216;2022-10-18T01:20:38;2.03;;;0.63;;
12681;SDS011;6405;59.208;18.216;2022-10-18T01:25:40;1.27;;;0.60;;
12681;SDS011;6405;59.208;18.216;2022-10-18T01:28:22;1.70;;;0.70;;
12681;SDS011;6405;59.208;18.216;2022-10-18T01:31:19;4.57;;;0.80;;
12681;SDS011;6405;59.208;18.216;2022-10-18T01:33:54;4.53;;;1.10;;
12681;SDS011;6405;59.208;18.216;2022-10-18T01:36:24;1.97;;;0.80;;
12681;SDS011;6405;59.208;18.216;2022-10-18T01:38:59;2.93;;;0.87;;
12681;SDS011;6405;59.208;18.216;2022-10-18T01:41:30;5.00;;;0.60;;
12681;SDS011;6405;59.208;18.216;2022-10-18T01:44:00;2.50;;;0.80;;
12681;SDS011;6405;59.208;18.216;2022-10-18T01:46:29;2.83;;;0.90;;
12681;SDS011;6405;59.208;18.216;2022-10-18T01:48:57;1.77;;;0.70;;
12681;SDS011;6405;59.208;18.216;2022-10-18T01:51:26;1.80;;;0.70;;
12681;SDS011;6405;59.208;18.216;2022-10-18T01:53:56;1.57;;;0.67;;
12681;SDS011;6405;59.208;18.216;2022-10-18T01:56:42;1.73;;;0.80;;
12681;SDS011;6405;59.208;18.216;2022-10-18T02:02:21;3.77;;;0.80;;
12681;SDS011;6405;59.208;18.216;2022-10-18T02:05:10;3.97;;;0.80;;
12681;SDS011;6405;59.208;18.216;2022-10-18T02:10:29;3.17;;;0.90;;
12681;SDS011;6405;59.208;18.216;2022-10-18T02:13:15;1.80;;;0.87;;
12681;SDS011;6405;59.208;18.216;2022-10-18T02:15:45;2.23;;;0.80;;
12681;SDS011;6405;59.208;18.216;2022-10-18T02:18:16;2.37;;;1.10;;
12681;SDS011;6405;59.208;18.216;2022-10-18T02:20:48;5.43;;;1.00;;
12681;SDS011;6405;59.208;18.216;2022-10-18T02:23:16;1.83;;;0.90;;
12681;SDS011;6405;59.208;18.216;2022-10-18T02:25:48;4.50;;;0.97;;
12681;SDS011;6405;59.208;18.216;2022-10-18T02:28:16;3.13;;;0.90;;
12681;SDS011;6405;59.208;18.216;2022-10-18T02:33:36;2.33;;;0.80;;
12681;SDS011;6405;59.208;18.216;2022-10-18T02:36:14;5.77;;;1.20;;
12681;SDS011;6405;59.208;18.216;2022-10-18T02:38:47;4.37;;;0.80;;
12681;SDS011;6405;59.208;18.216;2022-10-18T02:41:23;3.43;;;0.93;;
12681;SDS011;6405;59.208;18.216;2022-10-18T02:43:51;1.70;;;1.00;;
12681;SDS011;6405;59.208;18.216;2022-10-18T02:46:18;2.90;;;0.93;;
12681;SDS011;6405;59.208;18.216;2022-10-18T02:48:45;3.57;;;0.97;;
12681;SDS011;6405;59.208;18.216;2022-10-18T02:51:11;2.57;;;1.00;;
12681;SDS011;6405;59.208;18.216;2022-10-18T02:53:38;3.63;;;1.00;;
12681;SDS011;6405;59.208;18.216;2022-10-18T02:56:04;6.80;;;1.30;;
12681;SDS011;6405;59.208;18.216;2022-10-18T02:58:31;2.23;;;1.10;;
12681;SDS011;6405;59.208;18.216;2022-10-18T03:00:57;1.83;;;1.10;;
12681;SDS011;6405;59.208;18.216;2022-10-18T03:03:23;5.17;;;1.30;;
12681;SDS011;6405;59.208;18.216;2022-10-18T03:05:50;1.40;;;0.90;;
12681;SDS011;6405;59.208;18.216;2022-10-18T03:08:17;2.00;;;1.13;;
12681;SDS011;6405;59.208;18.216;2022-10-18T03:10:44;2.97;;;0.83;;
12681;SDS011;6405;59.208;18.216;2022-10-18T03:13:11;2.67;;;0.83;;
12681;SDS011;6405;59.208;18.216;2022-10-18T03:15:37;0.87;;;0.83;;
12681;SDS011;6405;59.208;18.216;2022-10-18T03:18:04;2.20;;;0.80;;
12681;SDS011;6405;59.208;18.216;2022-10-18T03:20:30;1.60;;;1.00;;
12681;SDS011;6405;59.208;18.216;2022-10-18T03:22:57;1.30;;;1.00;;
12681;SDS011;6405;59.208;18.216;2022-10-18T03:25:24;1.53;;;0.97;;
12681;SDS011;6405;59.208;18.216;2022-10-18T03:27:50;4.47;;;1.50;;
12681;SDS011;6405;59.208;18.216;2022-10-18T03:30:17;2.90;;;0.90;;
12681;SDS011;6405;59.208;18.216;2022-10-18T03:32:45;1.87;;;1.00;;
12681;SDS011;6405;59.208;18.216;2022-10-18T03:35:12;1.63;;;1.00;;
12681;SDS011;6405;59.208;18.216;2022-10-18T03:37:38;3.57;;;1.00;;
12681;SDS011;6405;59.208;18.216;2022-10-18T03:40:05;3.73;;;1.23;;
12681;SDS011;6405;59.208;18.216;2022-10-18T03:42:31;3.13;;;1.00;;
12681;SDS011;6405;59.208;18.216;2022-10-18T03:44:57;4.97;;;1.17;;
12681;SDS011;6405;59.208;18.216;2022-10-18T03:47:24;2.70;;;1.10;;
12681;SDS011;6405;59.208;18.216;2022-10-18T03:49:50;1.83;;;1.07;;
12681;SDS011;6405;59.208;18.216;2022-10-18T03:52:16;2.60;;;1.20;;
12681;SDS011;6405;59.208;18.216;2022-10-18T03:54:44;2.30;;;1.30;;
12681;SDS011;6405;59.208;18.216;2022-10-18T03:57:11;2.63;;;1.10;;
12681;SDS011;6405;59.208;18.216;2022-10-18T03:59:37;3.57;;;1.53;;
12681;SDS011;6405;59.208;18.216;2022-10-18T04:02:05;3.37;;;2.00;;
12681;SDS011;6405;59.208;18.216;2022-10-18T04:04:31;3.53;;;1.60;;
12681;SDS011;6405;59.208;18.216;2022-10-18T04:06:58;1.67;;;1.40;;
12681;SDS011;6405;59.208;18.216;2022-10-18T04:09:26;3.60;;;1.87;;
12681;SDS011;6405;59.208;18.216;2022-10-18T04:11:53;3.60;;;1.50;;
12681;SDS011;6405;59.208;18.216;2022-10-18T04:14:18;4.77;;;2.17;;
12681;SDS011;6405;59.208;18.216;2022-10-18T04:16:46;3.73;;;2.00;;
12681;SDS011;6405;59.208;18.216;2022-10-18T04:19:12;3.33;;;2.03;;
12681;SDS011;6405;59.208;18.216;2022-10-18T04:21:39;2.70;;;1.80;;
12681;SDS011;6405;59.208;18.216;2022-10-18T04:24:06;2.80;;;2.00;;
12681;SDS011;6405;59.208;18.216;2022-10-18T04:26:32;2.90;;;2.07;;
12681;SDS011;6405;59.208;18.216;2022-10-18T04:28:58;2.80;;;2.40;;
12681;SDS011;6405;59.208;18.216;2022-10-18T04:31:25;5.40;;;2.33;;
12681;SDS011;6405;59.208;18.216;2022-10-18T04:33:53;2.97;;;2.00;;
12681;SDS011;6405;59.208;18.216;2022-10-18T04:36:19;5.23;;;2.40;;
12681;SDS011;6405;59.208;18.216;2022-10-18T04:38:46;4.83;;;2.33;;
12681;SDS011;6405;59.208;18.216;2022-10-18T04:41:12;3.87;;;2.10;;
12681;SDS011;6405;59.208;18.216;2022-10-18T04:43:38;5.17;;;2.43;;
12681;SDS011;6405;59.208;18.216;2022-10-18T04:46:04;5.60;;;2.03;;
12681;SDS011;6405;59.208;18.216;2022-10-18T04:48:31;8.20;;;2.53;;
12681;SDS011;6405;59.208;18.216;2022-10-18T04:50:58;4.57;;;2.57;;
12681;SDS011;6405;59.208;18.216;2022-10-18T04:53:25;4.07;;;2.43;;
12681;SDS011;6405;59.208;18.216;2022-10-18T04:55:52;8.37;;;4.70;;
12681;SDS011;6405;59.208;18.216;2022-10-18T04:58:19;6.83;;;3.63;;
12681;SDS011;6405;59.208;18.216;2022-10-18T05:00:46;6.60;;;3.93;;
12681;SDS011;6405;59.208;18.216;2022-10-18T05:03:12;7.37;;;4.30;;
12681;SDS011;6405;59.208;18.216;2022-10-18T05:05:40;5.70;;;3.50;;
12681;SDS011;6405;59.208;18.216;2022-10-18T05:08:07;5.07;;;3.20;;
12681;SDS011;6405;59.208;18.216;2022-10-18T05:10:35;5.20;;;3.20;;
12681;SDS011;6405;59.208;18.216;2022-10-18T05:13:00;3.57;;;2.60;;
12681;SDS011;6405;59.208;18.216;2022-10-18T05:15:28;4.67;;;2.50;;
12681;SDS011;6405;59.208;18.216;2022-10-18T05:17:56;4.37;;;2.00;;
12681;SDS011;6405;59.208;18.216;2022-10-18T05:20:22;2.83;;;2.17;;
12681;SDS011;6405;59.208;18.216;2022-10-18T05:22:49;4.23;;;2.10;;
12681;SDS011;6405;59.208;18.216;2022-10-18T05:25:17;5.47;;;2.17;;
12681;SDS011;6405;59.208;18.216;2022-10-18T05:27:44;7.20;;;1.97;;
12681;SDS011;6405;59.208;18.216;2022-10-18T05:30:11;3.53;;;2.60;;
12681;SDS011;6405;59.208;18.216;2022-10-18T05:32:38;4.30;;;2.40;;
12681;SDS011;6405;59.208;18.216;2022-10-18T05:35:05;2.83;;;2.10;;
12681;SDS011;6405;59.208;18.216;2022-10-18T05:37:32;4.93;;;1.87;;
12681;SDS011;6405;59.208;18.216;2022-10-18T05:39:58;5.07;;;2.23;;
12681;SDS011;6405;59.208;18.216;2022-10-18T05:42:24;4.07;;;2.03;;
12681;SDS011;6405;59.208;18.216;2022-10-18T05:44:50;2.80;;;2.10;;
12681;SDS011;6405;59.208;18.216;2022-10-18T05:47:16;4.43;;;2.43;;
12681;SDS011;6405;59.208;18.216;2022-10-18T05:49:43;2.97;;;2.50;;
12681;SDS011;6405;59.208;18.216;2022-10-18T05:52:09;4.47;;;2.93;;
12681;SDS011;6405;59.208;18.216;2022-10-18T05:54:36;4.27;;;2.80;;
12681;SDS011;6405;59.208;18.216;2022-10-18T05:57:02;5.73;;;3.47;;
12681;SDS011;6405;59.208;18.216;2022-10-18T05:59:28;5.33;;;3.33;;
12681;SDS011;6405;59.208;18.216;2022-10-18T06:01:54;4.67;;;3.40;;
12681;SDS011;6405;59.208;18.216;2022-10-18T06:04:20;5.10;;;2.90;;
12681;SDS011;6405;59.208;18.216;2022-10-18T06:06:46;5.00;;;2.77;;
12681;SDS011;6405;59.208;18.216;2022-10-18T06:09:11;5.23;;;2.53;;
12681;SDS011;6405;59.208;18.216;2022-10-18T06:11:37;3.43;;;2.37;;
12681;SDS011;6405;59.208;18.216;2022-10-18T06:14:06;5.13;;;2.53;;
12681;SDS011;6405;59.208;18.216;2022-10-18T06:16:33;2.63;;;2.00;;
12681;SDS011;6405;59.208;18.216;2022-10-18T06:19:01;3.03;;;2.07;;
12681;SDS011;6405;59.208;18.216;2022-10-18T06:21:26;3.67;;;2.00;;
12681;SDS011;6405;59.208;18.216;2022-10-18T06:23:54;4.03;;;2.20;;
12681;SDS011;6405;59.208;18.216;2022-10-18T06:26:21;5.00;;;1.80;;
12681;SDS011;6405;59.208;18.216;2022-10-18T06:28:48;4.73;;;2.20;;
12681;SDS011;6405;59.208;18.216;2022-10-18T06:31:14;3.63;;;1.73;;
12681;SDS011;6405;59.208;18.216;2022-10-18T06:33:42;2.80;;;2.23;;
12681;SDS011;6405;59.208;18.216;2022-10-18T06:36:15;2.63;;;2.10;;
12681;SDS011;6405;59.208;18.216;2022-10-18T06:38:42;4.00;;;2.13;;
12681;SDS011;6405;59.208;18.216;2022-10-18T06:41:09;4.40;;;2.27;;
12681;SDS011;6405;59.208;18.216;2022-10-18T06:43:35;5.57;;;2.30;;
12681;SDS011;6405;59.208;18.216;2022-10-18T06:46:03;2.00;;;1.80;;
12681;SDS011;6405;59.208;18.216;2022-10-18T06:48:32;7.03;;;2.00;;
12681;SDS011;6405;59.208;18.216;2022-10-18T06:51:04;1.83;;;1.60;;
12681;SDS011;6405;59.208;18.216;2022-10-18T06:53:34;2.90;;;1.50;;
12681;SDS011;6405;59.208;18.216;2022-10-18T06:56:03;4.23;;;1.70;;
12681;SDS011;6405;59.208;18.216;2022-10-18T06:58:32;2.73;;;1.30;;
12681;SDS011;6405;59.208;18.216;2022-10-18T07:01:18;2.07;;;1.47;;
12681;SDS011;6405;59.208;18.216;2022-10-18T07:03:46;1.13;;;1.03;;
12681;SDS011;6405;59.208;18.216;2022-10-18T07:06:15;2.17;;;0.87;;
12681;SDS011;6405;59.208;18.216;2022-10-18T07:08:43;1.90;;;1.20;;
12681;SDS011;6405;59.208;18.216;2022-10-18T07:11:14;1.53;;;1.40;;
12681;SDS011;6405;59.208;18.216;2022-10-18T07:13:42;1.70;;;1.33;;
12681;SDS011;6405;59.208;18.216;2022-10-18T07:16:13;2.10;;;1.37;;
12681;SDS011;6405;59.208;18.216;2022-10-18T07:18:40;2.70;;;1.17;;
12681;SDS011;6405;59.208;18.216;2022-10-18T07:21:12;1.53;;;0.60;;
12681;SDS011;6405;59.208;18.216;2022-10-18T07:23:41;2.70;;;0.60;;
12681;SDS011;6405;59.208;18.216;2022-10-18T07:26:11;1.00;;;0.60;;
12681;SDS011;6405;59.208;18.216;2022-10-18T07:28:39;1.13;;;0.80;;
12681;SDS011;6405;59.208;18.216;2022-10-18T07:31:06;3.80;;;0.97;;
12681;SDS011;6405;59.208;18.216;2022-10-18T07:33:34;0.73;;;0.60;;
12681;SDS011;6405;59.208;18.216;2022-10-18T07:36:06;1.03;;;0.70;;
12681;SDS011;6405;59.208;18.216;2022-10-18T07:38:33;0.60;;;0.50;;
12681;SDS011;6405;59.208;18.216;2022-10-18T07:41:02;1.93;;;0.70;;
12681;SDS011;6405;59.208;18.216;2022-10-18T07:43:34;0.93;;;0.50;;
12681;SDS011;6405;59.208;18.216;2022-10-18T07:46:02;1.07;;;0.50;;
12681;SDS011;6405;59.208;18.216;2022-10-18T07:48:29;0.50;;;0.40;;
12681;SDS011;6405;59.208;18.216;2022-10-18T07:50:58;0.80;;;0.50;;
12681;SDS011;6405;59.208;18.216;2022-10-18T07:53:26;2.20;;;0.50;;
12681;SDS011;6405;59.208;18.216;2022-10-18T07:56:02;1.33;;;0.77;;
12681;SDS011;6405;59.208;18.216;2022-10-18T07:58:32;0.93;;;0.40;;
12681;SDS011;6405;59.208;18.216;2022-10-18T08:01:05;1.13;;;0.80;;
12681;SDS011;6405;59.208;18.216;2022-10-18T08:03:33;0.63;;;0.50;;
12681;SDS011;6405;59.208;18.216;2022-10-18T08:06:01;0.80;;;0.60;;
12681;SDS011;6405;59.208;18.216;2022-10-18T08:08:29;1.00;;;0.50;;
12681;SDS011;6405;59.208;18.216;2022-10-18T08:11:01;2.33;;;0.93;;
12681;SDS011;6405;59.208;18.216;2022-10-18T08:13:29;0.87;;;0.70;;
12681;SDS011;6405;59.208;18.216;2022-10-18T08:16:03;1.43;;;0.43;;
12681;SDS011;6405;59.208;18.216;2022-10-18T08:18:32;0.57;;;0.33;;
12681;SDS011;6405;59.208;18.216;2022-10-18T08:20:59;1.43;;;0.40;;
12681;SDS011;6405;59.208;18.216;2022-10-18T08:23:26;0.50;;;0.30;;
12681;SDS011;6405;59.208;18.216;2022-10-18T08:25:53;0.50;;;0.50;;
12681;SDS011;6405;59.208;18.216;2022-10-18T08:28:18;1.60;;;0.73;;
12681;SDS011;6405;59.208;18.216;2022-10-18T08:30:45;1.87;;;0.80;;
12681;SDS011;6405;59.208;18.216;2022-10-18T08:33:12;0.97;;;0.57;;
12681;SDS011;6405;59.208;18.216;2022-10-18T08:35:39;1.37;;;0.60;;
12681;SDS011;6405;59.208;18.216;2022-10-18T08:38:05;0.70;;;0.63;;
12681;SDS011;6405;59.208;18.216;2022-10-18T08:40:41;0.33;;;0.30;;
12681;SDS011;6405;59.208;18.216;2022-10-18T08:45:46;1.17;;;0.50;;
12681;SDS011;6405;59.208;18.216;2022-10-18T08:48:34;0.63;;;0.40;;
12681;SDS011;6405;59.208;18.216;2022-10-18T08:51:05;0.30;;;0.30;;
12681;SDS011;6405;59.208;18.216;2022-10-18T08:54:14;1.00;;;0.40;;
12681;SDS011;6405;59.208;18.216;2022-10-18T08:57:01;2.40;;;0.77;;
12681;SDS011;6405;59.208;18.216;2022-10-18T08:59:37;1.27;;;0.73;;
12681;SDS011;6405;59.208;18.216;2022-10-18T09:04:55;1.07;;;0.83;;
12681;SDS011;6405;59.208;18.216;2022-10-18T09:07:44;1.73;;;0.60;;
12681;SDS011;6405;59.208;18.216;2022-10-18T09:10:35;1.63;;;0.80;;
12681;SDS011;6405;59.208;18.216;2022-10-18T09:13:11;0.83;;;0.70;;
12681;SDS011;6405;59.208;18.216;2022-10-18T09:16:02;1.23;;;0.80;;
12681;SDS011;6405;59.208;18.216;2022-10-18T09:18:36;2.57;;;1.30;;
12681;SDS011;6405;59.208;18.216;2022-10-18T09:26:40;1.63;;;0.60;;
12681;SDS011;6405;59.208;18.216;2022-10-18T09:32:03;0.93;;;0.60;;
12681;SDS011;6405;59.208;18.216;2022-10-18T09:37:33;0.83;;;0.60;;
12681;SDS011;6405;59.208;18.216;2022-10-18T09:40:11;0.67;;;0.57;;
12681;SDS011;6405;59.208;18.216;2022-10-18T09:43:02;1.60;;;0.63;;
12681;SDS011;6405;59.208;18.216;2022-10-18T09:45:35;1.10;;;0.60;;
12681;SDS011;6405;59.208;18.216;2022-10-18T09:48:08;1.80;;;0.67;;
12681;SDS011;6405;59.208;18.216;2022-10-18T09:53:29;1.07;;;0.87;;
12681;SDS011;6405;59.208;18.216;2022-10-18T10:01:07;2.60;;;0.87;;
12681;SDS011;6405;59.208;18.216;2022-10-18T10:03:35;1.20;;;0.70;;
12681;SDS011;6405;59.208;18.216;2022-10-18T10:06:24;2.87;;;0.73;;
12681;SDS011;6405;59.208;18.216;2022-10-18T10:09:13;0.53;;;0.50;;
12681;SDS011;6405;59.208;18.216;2022-10-18T10:11:45;1.30;;;0.40;;
12681;SDS011;6405;59.208;18.216;2022-10-18T10:14:16;2.80;;;0.80;;
12681;SDS011;6405;59.208;18.216;2022-10-18T10:19:19;2.30;;;0.70;;
12681;SDS011;6405;59.208;18.216;2022-10-18T10:21:46;0.67;;;0.63;;
12681;SDS011;6405;59.208;18.216;2022-10-18T10:24:18;6.03;;;0.80;;
12681;SDS011;6405;59.208;18.216;2022-10-18T10:26:48;2.00;;;0.77;;
12681;SDS011;6405;59.208;18.216;2022-10-18T10:29:36;1.30;;;0.70;;
12681;SDS011;6405;59.208;18.216;2022-10-18T10:32:15;0.87;;;0.63;;
12681;SDS011;6405;59.208;18.216;2022-10-18T10:34:43;0.50;;;0.40;;
12681;SDS011;6405;59.208;18.216;2022-10-18T10:37:21;0.70;;;0.70;;
12681;SDS011;6405;59.208;18.216;2022-10-18T10:40:32;1.13;;;0.83;;
12681;SDS011;6405;59.208;18.216;2022-10-18T10:45:30;1.47;;;0.77;;
12681;SDS011;6405;59.208;18.216;2022-10-18T10:48:21;2.03;;;1.00;;
12681;SDS011;6405;59.208;18.216;2022-10-18T10:50:51;1.43;;;0.90;;
12681;SDS011;6405;59.208;18.216;2022-10-18T10:53:34;3.13;;;1.40;;
12681;SDS011;6405;59.208;18.216;2022-10-18T10:56:01;0.93;;;0.60;;
12681;SDS011;6405;59.208;18.216;2022-10-18T10:58:33;0.67;;;0.60;;
12681;SDS011;6405;59.208;18.216;2022-10-18T11:01:17;0.83;;;0.60;;
12681;SDS011;6405;59.208;18.216;2022-10-18T11:03:46;1.37;;;0.77;;
12681;SDS011;6405;59.208;18.216;2022-10-18T11:09:00;1.40;;;0.80;;
12681;SDS011;6405;59.208;18.216;2022-10-18T11:11:34;1.23;;;0.40;;
12681;SDS011;6405;59.208;18.216;2022-10-18T11:14:14;0.53;;;0.43;;
12681;SDS011;6405;59.208;18.216;2022-10-18T11:19:28;0.83;;;0.60;;
12681;SDS011;6405;59.208;18.216;2022-10-18T11:22:14;0.57;;;0.50;;
12681;SDS011;6405;59.208;18.216;2022-10-18T11:24:44;1.47;;;0.87;;
12681;SDS011;6405;59.208;18.216;2022-10-18T11:27:14;0.80;;;0.60;;
12681;SDS011;6405;59.208;18.216;2022-10-18T11:32:43;0.97;;;0.80;;
12681;SDS011;6405;59.208;18.216;2022-10-18T11:38:04;0.77;;;0.50;;
12681;SDS011;6405;59.208;18.216;2022-10-18T11:49:09;0.70;;;0.60;;
12681;SDS011;6405;59.208;18.216;2022-10-18T11:51:58;0.80;;;0.50;;
12681;SDS011;6405;59.208;18.216;2022-10-18T12:00:10;1.00;;;0.60;;
12681;SDS011;6405;59.208;18.216;2022-10-18T12:05:26;0.30;;;0.30;;
12681;SDS011;6405;59.208;18.216;2022-10-18T12:07:56;0.50;;;0.50;;
12681;SDS011;6405;59.208;18.216;2022-10-18T12:10:27;0.60;;;0.50;;
12681;SDS011;6405;59.208;18.216;2022-10-18T12:12:58;0.67;;;0.60;;
12681;SDS011;6405;59.208;18.216;2022-10-18T12:15:33;0.47;;;0.47;;
12681;SDS011;6405;59.208;18.216;2022-10-18T12:18:06;0.63;;;0.40;;
12681;SDS011;6405;59.208;18.216;2022-10-18T12:20:41;0.40;;;0.40;;
12681;SDS011;6405;59.208;18.216;2022-10-18T12:23:13;0.77;;;0.77;;
12681;SDS011;6405;59.208;18.216;2022-10-18T12:25:45;1.30;;;0.60;;
12681;SDS011;6405;59.208;18.216;2022-10-18T12:28:36;0.77;;;0.43;;
12681;SDS011;6405;59.208;18.216;2022-10-18T12:31:22;1.47;;;0.60;;
12681;SDS011;6405;59.208;18.216;2022-10-18T12:36:52;2.20;;;0.80;;
12681;SDS011;6405;59.208;18.216;2022-10-18T12:39:28;3.60;;;0.90;;
12681;SDS011;6405;59.208;18.216;2022-10-18T12:41:58;0.60;;;0.53;;
12681;SDS011;6405;59.208;18.216;2022-10-18T12:46:56;0.87;;;0.53;;
12681;SDS011;6405;59.208;18.216;2022-10-18T12:49:26;0.63;;;0.40;;
12681;SDS011;6405;59.208;18.216;2022-10-18T12:54:33;1.00;;;0.60;;
12681;SDS011;6405;59.208;18.216;2022-10-18T12:57:05;1.17;;;0.63;;
12681;SDS011;6405;59.208;18.216;2022-10-18T12:59:46;0.80;;;0.60;;
12681;SDS011;6405;59.208;18.216;2022-10-18T13:02:19;0.87;;;0.60;;
12681;SDS011;6405;59.208;18.216;2022-10-18T13:04:47;1.00;;;0.60;;
12681;SDS011;6405;59.208;18.216;2022-10-18T13:07:20;3.27;;;0.70;;
12681;SDS011;6405;59.208;18.216;2022-10-18T13:15:43;0.80;;;0.60;;
12681;SDS011;6405;59.208;18.216;2022-10-18T13:18:18;1.20;;;1.10;;
12681;SDS011;6405;59.208;18.216;2022-10-18T13:21:26;1.63;;;0.60;;
12681;SDS011;6405;59.208;18.216;2022-10-18T13:24:03;0.60;;;0.53;;
12681;SDS011;6405;59.208;18.216;2022-10-18T13:29:05;0.53;;;0.50;;
12681;SDS011;6405;59.208;18.216;2022-10-18T13:32:04;1.87;;;0.70;;
12681;SDS011;6405;59.208;18.216;2022-10-18T13:34:49;1.43;;;0.80;;
12681;SDS011;6405;59.208;18.216;2022-10-18T13:39:45;0.77;;;0.60;;
12681;SDS011;6405;59.208;18.216;2022-10-18T13:44:40;1.63;;;0.83;;
12681;SDS011;6405;59.208;18.216;2022-10-18T13:47:09;0.80;;;0.80;;
12681;SDS011;6405;59.208;18.216;2022-10-18T14:00:20;1.57;;;0.83;;
12681;SDS011;6405;59.208;18.216;2022-10-18T14:06:19;2.00;;;1.00;;
12681;SDS011;6405;59.208;18.216;2022-10-18T14:14:23;1.73;;;1.30;;
12681;SDS011;6405;59.208;18.216;2022-10-18T14:25:36;1.97;;;1.07;;
12681;SDS011;6405;59.208;18.216;2022-10-18T14:30:50;2.00;;;0.83;;
12681;SDS011;6405;59.208;18.216;2022-10-18T14:33:25;1.20;;;0.80;;
12681;SDS011;6405;59.208;18.216;2022-10-18T14:41:34;3.47;;;1.80;;
12681;SDS011;6405;59.208;18.216;2022-10-18T14:46:44;4.37;;;1.80;;
12681;SDS011;6405;59.208;18.216;2022-10-18T14:49:15;2.50;;;1.63;;
12681;SDS011;6405;59.208;18.216;2022-10-18T14:51:43;2.43;;;1.50;;
12681;SDS011;6405;59.208;18.216;2022-10-18T14:54:15;2.63;;;1.53;;
12681;SDS011;6405;59.208;18.216;2022-10-18T14:56:44;3.10;;;1.67;;
12681;SDS011;6405;59.208;18.216;2022-10-18T15:01:56;1.90;;;1.23;;
12681;SDS011;6405;59.208;18.216;2022-10-18T15:04:31;1.97;;;1.57;;
12681;SDS011;6405;59.208;18.216;2022-10-18T15:07:04;1.73;;;1.30;;
12681;SDS011;6405;59.208;18.216;2022-10-18T15:09:34;2.13;;;1.23;;
12681;SDS011;6405;59.208;18.216;2022-10-18T15:12:01;3.23;;;1.73;;
12681;SDS011;6405;59.208;18.216;2022-10-18T15:14:30;4.30;;;1.23;;
12681;SDS011;6405;59.208;18.216;2022-10-18T15:17:02;3.63;;;2.03;;
12681;SDS011;6405;59.208;18.216;2022-10-18T15:19:37;1.73;;;1.23;;
12681;SDS011;6405;59.208;18.216;2022-10-18T15:22:06;1.80;;;1.20;;
12681;SDS011;6405;59.208;18.216;2022-10-18T15:24:34;1.37;;;1.20;;
12681;SDS011;6405;59.208;18.216;2022-10-18T15:27:23;1.80;;;1.20;;
12681;SDS011;6405;59.208;18.216;2022-10-18T15:29:55;2.70;;;1.10;;
12681;SDS011;6405;59.208;18.216;2022-10-18T15:32:29;3.63;;;1.13;;
12681;SDS011;6405;59.208;18.216;2022-10-18T15:35:06;2.37;;;0.90;;
12681;SDS011;6405;59.208;18.216;2022-10-18T15:37:40;3.40;;;1.40;;
12681;SDS011;6405;59.208;18.216;2022-10-18T15:42:51;2.37;;;0.87;;
12681;SDS011;6405;59.208;18.216;2022-10-18T15:55:49;1.30;;;1.10;;
12681;SDS011;6405;59.208;18.216;2022-10-18T15:58:42;1.47;;;1.30;;
12681;SDS011;6405;59.208;18.216;2022-10-18T16:01:16;2.07;;;1.70;;
12681;SDS011;6405;59.208;18.216;2022-10-18T16:03:48;1.40;;;1.30;;
12681;SDS011;6405;59.208;18.216;2022-10-18T16:06:18;3.03;;;1.93;;
12681;SDS011;6405;59.208;18.216;2022-10-18T16:08:46;3.20;;;2.67;;
12681;SDS011;6405;59.208;18.216;2022-10-18T16:11:21;3.60;;;2.60;;
12681;SDS011;6405;59.208;18.216;2022-10-18T16:13:50;4.40;;;2.60;;
12681;SDS011;6405;59.208;18.216;2022-10-18T16:16:18;2.87;;;2.43;;
12681;SDS011;6405;59.208;18.216;2022-10-18T16:18:48;2.53;;;2.33;;
12681;SDS011;6405;59.208;18.216;2022-10-18T16:21:18;2.73;;;2.50;;
12681;SDS011;6405;59.208;18.216;2022-10-18T16:23:51;5.60;;;2.37;;
12681;SDS011;6405;59.208;18.216;2022-10-18T16:26:18;2.33;;;2.13;;
12681;SDS011;6405;59.208;18.216;2022-10-18T16:28:45;4.10;;;2.57;;
12681;SDS011;6405;59.208;18.216;2022-10-18T16:31:14;3.37;;;2.53;;
12681;SDS011;6405;59.208;18.216;2022-10-18T16:33:46;3.07;;;2.40;;
12681;SDS011;6405;59.208;18.216;2022-10-18T16:36:16;2.97;;;2.30;;
12681;SDS011;6405;59.208;18.216;2022-10-18T16:38:47;3.23;;;1.70;;
12681;SDS011;6405;59.208;18.216;2022-10-18T16:41:14;3.67;;;2.10;;
12681;SDS011;6405;59.208;18.216;2022-10-18T16:43:42;2.90;;;2.70;;
12681;SDS011;6405;59.208;18.216;2022-10-18T16:46:14;3.60;;;1.73;;
12681;SDS011;6405;59.208;18.216;2022-10-18T16:48:46;5.17;;;1.80;;
12681;SDS011;6405;59.208;18.216;2022-10-18T16:51:14;3.23;;;1.30;;
12681;SDS011;6405;59.208;18.216;2022-10-18T16:53:43;2.03;;;1.10;;
12681;SDS011;6405;59.208;18.216;2022-10-18T16:56:14;0.97;;;0.87;;
12681;SDS011;6405;59.208;18.216;2022-10-18T16:58:43;2.17;;;1.10;;
12681;SDS011;6405;59.208;18.216;2022-10-18T17:01:11;0.90;;;0.90;;
12681;SDS011;6405;59.208;18.216;2022-10-18T17:03:38;3.13;;;1.00;;
12681;SDS011;6405;59.208;18.216;2022-10-18T17:06:10;2.10;;;1.13;;
12681;SDS011;6405;59.208;18.216;2022-10-18T17:08:47;1.17;;;1.00;;
12681;SDS011;6405;59.208;18.216;2022-10-18T17:11:15;1.93;;;1.10;;
12681;SDS011;6405;59.208;18.216;2022-10-18T17:13:43;1.70;;;1.00;;
12681;SDS011;6405;59.208;18.216;2022-10-18T17:16:23;2.60;;;0.83;;
12681;SDS011;6405;59.208;18.216;2022-10-18T17:18:55;2.50;;;1.47;;
12681;SDS011;6405;59.208;18.216;2022-10-18T17:21:24;2.67;;;1.33;;
12681;SDS011;6405;59.208;18.216;2022-10-18T17:23:53;3.17;;;1.50;;
12681;SDS011;6405;59.208;18.216;2022-10-18T17:26:21;3.13;;;1.67;;
12681;SDS011;6405;59.208;18.216;2022-10-18T17:28:49;3.07;;;2.13;;
12681;SDS011;6405;59.208;18.216;2022-10-18T17:31:19;2.73;;;1.50;;
12681;SDS011;6405;59.208;18.216;2022-10-18T17:33:45;1.60;;;1.40;;
12681;SDS011;6405;59.208;18.216;2022-10-18T17:36:13;1.50;;;1.37;;
12681;SDS011;6405;59.208;18.216;2022-10-18T17:38:41;3.20;;;1.47;;
12681;SDS011;6405;59.208;18.216;2022-10-18T17:41:09;1.57;;;1.10;;
12681;SDS011;6405;59.208;18.216;2022-10-18T17:43:37;1.87;;;1.10;;
12681;SDS011;6405;59.208;18.216;2022-10-18T17:46:05;2.90;;;1.07;;